Gunner — WDG9803 — position and weather

sailwx.info

Track history (hours):
 
Tides and Currents Weather Stations Pressure Air Temp Water Temp Dewpoint Dewpoint Depression Visibility Wind Speed Wind Dir Waves Ship Positions

Gunner

Owner: M/V Gunner, LLC, Broussard, LA. More information available from US FCC via Universal Licensing System and Coast Guard Vessel Documentation Center.

Last reported at 2017-Oct-18 06:31 UTC. Time now 2017-Oct-18 16:41 UTC.
Position N 29°51' W 092°21'.

Length 22 m; draft 3 m.

Type: Towing. MMSI: 367591260.

Date/timePositionNaut miles runAvg speedWind from/ knotsBaromVisibWave heightAir tempDewpointWater temp
2017-Oct-18 06:31N 29°51' W 092°21'0 3.6
2017-Oct-18 06:29N 29°51' W 092°21'2 3.4
2017-Oct-18 05:59N 29°50' W 092°19'2 2.8
2017-Oct-18 05:22N 29°50' W 092°18'1 3.2
2017-Oct-18 04:56N 29°49' W 092°16'2 3.5
2017-Oct-18 04:30N 29°48' W 092°15'1 2.1
2017-Oct-18 04:00N 29°48' W 092°14'1 2.6
2017-Oct-18 03:30N 29°47' W 092°12'1 1.3
2017-Oct-18 03:00N 29°47' W 092°12'1 2.6
2017-Oct-18 02:30N 29°47' W 092°10'2 3.5
2017-Oct-18 02:00N 29°47' W 092°08'2 3.5
2017-Oct-18 01:30N 29°48' W 092°06'2 3.5
2017-Oct-18 00:57N 29°48' W 092°04'2 3.6
2017-Oct-18 00:30N 29°49' W 092°03'  
2017-Oct-15 07:36N 31°56' W 091°12'1 6.7
2017-Oct-15 07:30N 31°57' W 091°12'5 6.0
2017-Oct-15 06:43N 31°59' W 091°07'1 6.8
2017-Oct-15 06:30N 31°60' W 091°05'4 7.3
2017-Oct-15 06:00N 32°03' W 091°03'4 6.8
2017-Oct-15 05:28N 32°06' W 091°06'3 4.0
2017-Oct-15 04:48N 32°07' W 091°03'2 6.6
2017-Oct-15 04:30N 32°07' W 091°01'4 7.3
2017-Oct-15 04:00N 32°11' W 090°60'4 7.1
2017-Oct-15 03:30N 32°14' W 090°59'4 7.3
2017-Oct-15 03:00N 32°17' W 090°56'3 6.5
2017-Oct-15 02:30N 32°20' W 090°54'3 6.5
2017-Oct-15 02:00N 32°21' W 090°58'3 5.4
2017-Oct-15 01:30N 32°23' W 091°00'3 6.3
2017-Oct-15 01:00N 32°26' W 091°01'4 7.6
2017-Oct-15 00:30N 32°27' W 091°05'6 6.9
2017-Oct-14 23:42N 32°33' W 091°06'2 8.0
2017-Oct-14 23:30N 32°34' W 091°06'4 7.6
2017-Oct-14 23:00N 32°37' W 091°09'  
Track history (hours):
 
Tides and Currents Weather Stations Pressure Air Temp Water Temp Dewpoint Dewpoint Depression Visibility Wind Speed Wind Dir Waves Ship Positions

Gunner

Owner: M/V Gunner, LLC, Broussard, LA. More information available from US FCC via Universal Licensing System and Coast Guard Vessel Documentation Center.

Last reported at 2017-Oct-18 06:31 UTC. Time now 2017-Oct-18 16:41 UTC.
Position N 29°51' W 092°21'.

Length 22 m; draft 3 m.

Type: Towing. MMSI: 367591260.

Date/timePositionNaut miles runAvg speedWind from/ knotsBaromVisibWave heightAir tempDewpointWater temp
2017-Oct-18 06:31N 29°51' W 092°21'0 3.6
2017-Oct-18 06:29N 29°51' W 092°21'2 3.4
2017-Oct-18 05:59N 29°50' W 092°19'2 2.8
2017-Oct-18 05:22N 29°50' W 092°18'1 3.2
2017-Oct-18 04:56N 29°49' W 092°16'2 3.5
2017-Oct-18 04:30N 29°48' W 092°15'1 2.1
2017-Oct-18 04:00N 29°48' W 092°14'1 2.6
2017-Oct-18 03:30N 29°47' W 092°12'1 1.3
2017-Oct-18 03:00N 29°47' W 092°12'1 2.6
2017-Oct-18 02:30N 29°47' W 092°10'2 3.5
2017-Oct-18 02:00N 29°47' W 092°08'2 3.5
2017-Oct-18 01:30N 29°48' W 092°06'2 3.5
2017-Oct-18 00:57N 29°48' W 092°04'2 3.6
2017-Oct-18 00:30N 29°49' W 092°03'  
2017-Oct-15 07:36N 31°56' W 091°12'1 6.7
2017-Oct-15 07:30N 31°57' W 091°12'5 6.0
2017-Oct-15 06:43N 31°59' W 091°07'1 6.8
2017-Oct-15 06:30N 31°60' W 091°05'4 7.3
2017-Oct-15 06:00N 32°03' W 091°03'4 6.8
2017-Oct-15 05:28N 32°06' W 091°06'3 4.0
2017-Oct-15 04:48N 32°07' W 091°03'2 6.6
2017-Oct-15 04:30N 32°07' W 091°01'4 7.3
2017-Oct-15 04:00N 32°11' W 090°60'4 7.1
2017-Oct-15 03:30N 32°14' W 090°59'4 7.3
2017-Oct-15 03:00N 32°17' W 090°56'3 6.5
2017-Oct-15 02:30N 32°20' W 090°54'3 6.5
2017-Oct-15 02:00N 32°21' W 090°58'3 5.4
2017-Oct-15 01:30N 32°23' W 091°00'3 6.3
2017-Oct-15 01:00N 32°26' W 091°01'4 7.6
2017-Oct-15 00:30N 32°27' W 091°05'6 6.9
2017-Oct-14 23:42N 32°33' W 091°06'2 8.0
2017-Oct-14 23:30N 32°34' W 091°06'4 7.6
2017-Oct-14 23:00N 32°37' W 091°09'  

Dump ship's entire track history